Time;durP1;ratioP1;P1;durP2;ratioP2;P2;SDS_P1;SDS_P2;PMS_P1;PMS_P2;Temp;Humidity;BMP_temperature;BMP_pressure;BME280_temperature;BME280_humidity;BME280_pressure;Samples;Min_cycle;Max_cycle;Signal;HPM_P1;HPM_P2
2023/09/08 00:00:31;;;;;;;9.73;6.13;;;;;;;-145.48;100.00;64539.38;5980187;29;20433;-90
2023/09/08 00:03:35;;;;;;;9.32;5.95;;;;;;;-145.48;100.00;64539.38;5981281;29;20509;-89
2023/09/08 00:06:36;;;;;;;8.13;5.88;;;;;;;-145.48;100.00;64539.38;5975960;29;20132;-89
2023/09/08 00:09:38;;;;;;;7.78;6.35;;;;;;;-145.48;100.00;64539.38;5974910;29;20057;-89
2023/09/08 00:12:40;;;;;;;7.53;5.88;;;;;;;-145.48;100.00;64539.38;5982272;29;20126;-89
2023/09/08 00:15:42;;;;;;;7.45;5.68;;;;;;;-145.48;100.00;64539.38;5972982;29;20043;-89
2023/09/08 00:18:44;;;;;;;8.60;6.10;;;;;;;-145.48;100.00;64539.38;5977085;29;20038;-89
2023/09/08 00:21:46;;;;;;;7.60;5.97;;;;;;;-145.48;100.00;64539.38;5969370;29;20050;-89
2023/09/08 00:24:48;;;;;;;10.35;6.65;;;;;;;-145.48;100.00;64539.38;5969761;29;20053;-89
2023/09/08 00:27:52;;;;;;;7.78;6.55;;;;;;;-145.48;100.00;64539.38;5973785;29;20050;-89
2023/09/08 00:30:54;;;;;;;8.90;6.30;;;;;;;-145.48;100.00;64539.38;5962836;29;20411;-89
2023/09/08 00:33:56;;;;;;;8.43;6.05;;;;;;;-145.48;100.00;64539.38;5971666;29;20042;-89
2023/09/08 00:37:06;;;;;;;7.43;6.53;;;;;;;-145.48;100.00;64539.38;5981670;29;20558;-89
2023/09/08 00:40:10;;;;;;;8.52;7.00;;;;;;;-145.48;100.00;64539.38;5969234;29;20117;-89
2023/09/08 00:43:12;;;;;;;8.75;6.47;;;;;;;-145.48;100.00;64539.38;5980761;29;20046;-89
2023/09/08 00:46:13;;;;;;;8.70;6.95;;;;;;;-145.48;100.00;64539.38;5975355;29;20058;-89
2023/09/08 00:49:16;;;;;;;7.75;6.95;;;;;;;-145.48;100.00;64539.38;5980747;29;20264;-89
2023/09/08 00:52:18;;;;;;;7.93;6.97;;;;;;;-145.48;100.00;64539.38;5978970;29;20042;-89
2023/09/08 00:55:20;;;;;;;9.23;6.82;;;;;;;-145.48;100.00;64539.38;5981128;29;20446;-90
2023/09/08 00:58:22;;;;;;;10.48;7.15;;;;;;;-145.48;100.00;64539.38;5979977;29;20091;-89
2023/09/08 01:01:24;;;;;;;10.57;7.25;;;;;;;-145.48;100.00;64539.38;5980341;29;20058;-89
2023/09/08 01:04:26;;;;;;;9.95;7.45;;;;;;;-145.48;100.00;64539.38;5981818;29;20053;-90
2023/09/08 01:07:31;;;;;;;10.35;6.85;;;;;;;-145.48;100.00;64539.38;5978528;29;20050;-90
2023/09/08 01:10:34;;;;;;;11.18;7.40;;;;;;;-145.48;100.00;64539.38;5978599;29;20583;-89
2023/09/08 01:13:36;;;;;;;10.23;6.75;;;;;;;-145.48;100.00;64539.38;5983265;29;20039;-90
2023/09/08 01:16:40;;;;;;;7.80;6.88;;;;;;;-145.48;100.00;64539.38;5977159;29;20660;-89
2023/09/08 01:19:45;;;;;;;9.07;7.38;;;;;;;-145.48;100.00;64539.38;5972009;29;20199;-89
2023/09/08 01:23:36;;;;;;;9.93;7.00;;;;;;;-145.48;100.00;64539.38;5996538;29;20055;-89
2023/09/08 01:26:41;;;;;;;7.97;6.57;;;;;;;-145.48;100.00;64539.38;5911636;30;20063;-89
2023/09/08 01:29:47;;;;;;;11.07;7.30;;;;;;;-145.48;100.00;64539.38;5910045;30;20047;-89
2023/09/08 01:32:50;;;;;;;13.70;6.68;;;;;;;-145.48;100.00;64539.38;5910724;30;20101;-89
2023/09/08 01:35:53;;;;;;;10.55;7.88;;;;;;;-145.48;100.00;64539.38;5909718;30;20056;-89
2023/09/08 01:38:55;;;;;;;8.98;7.28;;;;;;;-145.48;100.00;64539.38;5880717;30;20047;-89
2023/09/08 01:41:59;;;;;;;9.32;6.78;;;;;;;-145.48;100.00;64539.38;5913528;30;20412;-89
2023/09/08 01:45:01;;;;;;;8.27;6.65;;;;;;;-145.48;100.00;64539.38;5914448;30;20507;-89
2023/09/08 01:48:04;;;;;;;8.93;7.03;;;;;;;-145.48;100.00;64539.38;5914665;30;20559;-89
2023/09/08 01:51:06;;;;;;;9.80;7.20;;;;;;;-145.48;100.00;64539.38;5914330;30;20055;-89
2023/09/08 01:54:09;;;;;;;9.60;7.57;;;;;;;-145.48;100.00;64539.38;5914598;30;20777;-89
2023/09/08 01:57:12;;;;;;;9.02;7.38;;;;;;;-145.48;100.00;64539.38;5901670;30;20052;-89
2023/09/08 02:00:14;;;;;;;9.80;7.53;;;;;;;-145.48;100.00;64539.38;5899390;30;20546;-89
2023/09/08 02:03:17;;;;;;;9.57;7.13;;;;;;;-145.48;100.00;64539.38;5947412;29;20054;-89
2023/09/08 02:06:19;;;;;;;10.82;7.93;;;;;;;-145.48;100.00;64539.38;5969217;29;20313;-89
2023/09/08 02:09:21;;;;;;;10.45;7.95;;;;;;;-145.48;100.00;64539.38;5978075;29;20138;-89
2023/09/08 02:12:23;;;;;;;11.70;8.20;;;;;;;-145.48;100.00;64539.38;5979003;29;20058;-89
2023/09/08 02:15:25;;;;;;;9.90;7.63;;;;;;;-145.48;100.00;64539.38;5979531;29;20042;-89
2023/09/08 02:18:28;;;;;;;9.80;7.63;;;;;;;-145.48;100.00;64539.38;5984721;29;20522;-89
2023/09/08 02:21:30;;;;;;;9.95;7.55;;;;;;;-145.48;100.00;64539.38;5982994;29;20050;-89
2023/09/08 02:24:32;;;;;;;11.93;8.27;;;;;;;-145.48;100.00;64539.38;5978001;29;20129;-89
2023/09/08 02:27:34;;;;;;;9.73;8.00;;;;;;;-145.48;100.00;64539.38;5981471;29;20061;-89
2023/09/08 02:30:36;;;;;;;8.65;7.18;;;;;;;-145.48;100.00;64539.38;5981015;29;20232;-89
2023/09/08 02:33:39;;;;;;;10.38;7.63;;;;;;;-145.48;100.00;64539.38;5979119;29;20051;-89
2023/09/08 02:36:41;;;;;;;11.23;7.47;;;;;;;-145.48;100.00;64539.38;5973925;29;20434;-89
2023/09/08 02:39:43;;;;;;;10.52;7.78;;;;;;;-145.48;100.00;64539.38;5967436;29;20061;-89
2023/09/08 02:42:46;;;;;;;11.30;7.90;;;;;;;-145.48;100.00;64539.38;5980616;29;20426;-89
2023/09/08 02:45:47;;;;;;;11.77;8.07;;;;;;;-145.48;100.00;64539.38;5982070;29;20125;-89
2023/09/08 02:48:50;;;;;;;9.50;7.47;;;;;;;-145.48;100.00;64539.38;5979338;29;20642;-89
2023/09/08 02:51:52;;;;;;;13.73;8.45;;;;;;;-145.48;100.00;64539.38;5965545;29;20521;-89
2023/09/08 02:54:53;;;;;;;10.40;7.90;;;;;;;-145.48;100.00;64539.38;5986627;29;20050;-89
2023/09/08 02:57:56;;;;;;;9.82;8.25;;;;;;;-145.48;100.00;64539.38;5982127;29;20046;-89
2023/09/08 03:01:20;;;;;;;10.55;7.68;;;;;;;-145.48;100.00;64539.38;5981330;29;20133;-89
2023/09/08 03:04:22;;;;;;;9.48;7.93;;;;;;;-145.48;100.00;64539.38;5979327;29;20050;-89
2023/09/08 03:07:25;;;;;;;15.20;8.10;;;;;;;-145.48;100.00;64539.38;5992189;29;20058;-89
2023/09/08 03:10:28;;;;;;;13.57;8.65;;;;;;;-145.48;100.00;64539.38;5982801;29;20038;-89
2023/09/08 03:13:35;;;;;;;11.43;8.02;;;;;;;-145.48;100.00;64539.38;5981752;29;20053;-89
2023/09/08 03:16:37;;;;;;;10.68;8.68;;;;;;;-145.48;100.00;64539.38;5979708;29;20421;-89
2023/09/08 03:19:39;;;;;;;9.45;8.25;;;;;;;-145.48;100.00;64539.38;5992012;29;20197;-89
2023/09/08 03:22:41;;;;;;;11.88;8.45;;;;;;;-145.48;100.00;64539.38;5982256;29;20058;-89
2023/09/08 03:25:43;;;;;;;10.68;7.80;;;;;;;-145.48;100.00;64539.38;5980033;29;20046;-89
2023/09/08 03:28:46;;;;;;;12.65;8.82;;;;;;;-145.48;100.00;64539.38;5984628;29;20153;-89
2023/09/08 03:31:48;;;;;;;12.02;8.73;;;;;;;-145.48;100.00;64539.38;5977879;29;20058;-89
2023/09/08 03:34:50;;;;;;;11.55;8.43;;;;;;;-145.48;100.00;64539.38;5983128;29;20421;-89
2023/09/08 03:37:52;;;;;;;10.57;8.70;;;;;;;-145.48;100.00;64539.38;5983956;29;20050;-89
2023/09/08 03:40:54;;;;;;;9.40;8.18;;;;;;;-145.48;100.00;64539.38;5981973;29;20046;-89
2023/09/08 03:43:56;;;;;;;9.32;8.15;;;;;;;-145.48;100.00;64539.38;5973755;29;20088;-89
2023/09/08 03:46:58;;;;;;;10.35;8.50;;;;;;;-145.48;100.00;64539.38;5966202;29;20054;-89
2023/09/08 03:50:06;;;;;;;10.25;8.57;;;;;;;-145.48;100.00;64539.38;5968632;29;20076;-89
2023/09/08 03:53:08;;;;;;;10.70;8.85;;;;;;;-145.48;100.00;64539.38;5961404;29;20130;-89
2023/09/08 03:56:10;;;;;;;12.90;8.95;;;;;;;-145.48;100.00;64539.38;5979572;29;20047;-89
2023/09/08 03:59:12;;;;;;;11.93;9.20;;;;;;;-145.48;100.00;64539.38;5972246;29;20077;-89
2023/09/08 04:02:13;;;;;;;11.82;9.18;;;;;;;-145.48;100.00;64539.38;5971087;29;20051;-89
2023/09/08 04:05:16;;;;;;;12.55;9.00;;;;;;;-145.48;100.00;64539.38;5978302;29;20510;-89
2023/09/08 04:08:19;;;;;;;13.00;9.23;;;;;;;-145.48;100.00;64539.38;5969798;29;20055;-89
2023/09/08 04:11:22;;;;;;;14.13;8.68;;;;;;;-145.48;100.00;64539.38;5980438;29;20528;-89
2023/09/08 04:14:27;;;;;;;10.73;8.55;;;;;;;-145.48;100.00;64539.38;5974836;29;20047;-89
2023/09/08 04:17:29;;;;;;;11.00;8.18;;;;;;;-145.48;100.00;64539.38;5980577;29;20061;-89
2023/09/08 04:20:31;;;;;;;13.77;9.00;;;;;;;-145.48;100.00;64539.38;5976936;29;20055;-89
2023/09/08 04:23:33;;;;;;;14.00;8.48;;;;;;;-145.48;100.00;64539.38;5975420;29;20054;-89
2023/09/08 04:26:35;;;;;;;10.27;9.18;;;;;;;-145.48;100.00;64539.38;5981515;29;20477;-89
2023/09/08 04:29:38;;;;;;;10.88;8.50;;;;;;;-145.48;100.00;64539.38;5979647;29;20162;-89
2023/09/08 04:32:40;;;;;;;14.10;9.32;;;;;;;-145.48;100.00;64539.38;5955430;29;20046;-89
2023/09/08 04:35:44;;;;;;;12.48;9.05;;;;;;;-145.48;100.00;64539.38;5977433;29;20076;-89
2023/09/08 04:38:46;;;;;;;12.02;9.38;;;;;;;-145.48;100.00;64539.38;5979483;29;20518;-89
2023/09/08 04:41:48;;;;;;;11.95;8.80;;;;;;;-145.48;100.00;64539.38;5971317;29;20080;-89
2023/09/08 04:44:50;;;;;;;14.90;9.77;;;;;;;-145.48;100.00;64539.38;5968951;29;20573;-89
2023/09/08 04:47:52;;;;;;;10.57;9.10;;;;;;;-145.48;100.00;64539.38;5977294;29;20089;-89
2023/09/08 04:50:56;;;;;;;13.63;9.27;;;;;;;-145.48;100.00;64539.38;5963382;29;20065;-89
2023/09/08 04:53:58;;;;;;;14.02;10.02;;;;;;;-145.48;100.00;64539.38;5972989;29;20051;-89
2023/09/08 04:57:01;;;;;;;11.93;9.70;;;;;;;-145.48;100.00;64539.38;5994143;29;20085;-89
2023/09/08 05:00:24;;;;;;;11.63;9.15;;;;;;;-145.48;100.00;64539.38;5979642;29;20043;-89
2023/09/08 05:03:26;;;;;;;14.32;9.77;;;;;;;-145.48;100.00;64539.38;5981426;29;20738;-89
2023/09/08 05:06:29;;;;;;;11.23;9.50;;;;;;;-145.48;100.00;64539.38;5978752;29;20497;-89
2023/09/08 05:09:33;;;;;;;12.43;9.88;;;;;;;-145.48;100.00;64539.38;5979159;29;20502;-89
2023/09/08 05:12:35;;;;;;;13.07;9.00;;;;;;;-145.48;100.00;64539.38;5964440;29;20155;-89
2023/09/08 05:15:39;;;;;;;11.15;9.13;;;;;;;-145.48;100.00;64539.38;5974295;29;20066;-89
2023/09/08 05:18:41;;;;;;;11.52;8.85;;;;;;;-145.48;100.00;64539.38;5981887;29;20101;-89
2023/09/08 05:21:44;;;;;;;12.48;9.20;;;;;;;-145.48;100.00;64539.38;5973311;29;20315;-89
2023/09/08 05:24:46;;;;;;;9.98;8.45;;;;;;;-145.48;100.00;64539.38;5983933;29;20430;-89
2023/09/08 05:27:49;;;;;;;12.63;9.32;;;;;;;-145.48;100.00;64539.38;5983759;29;20065;-89
2023/09/08 05:30:52;;;;;;;9.90;8.38;;;;;;;-145.48;100.00;64539.38;5966315;29;20053;-89
2023/09/08 05:33:56;;;;;;;10.80;9.10;;;;;;;-145.48;100.00;64539.38;5983543;29;20106;-89
2023/09/08 05:36:58;;;;;;;12.63;9.05;;;;;;;-145.48;100.00;64539.38;5985100;29;20042;-89
2023/09/08 05:40:03;;;;;;;9.57;8.57;;;;;;;-145.48;100.00;64539.38;5981647;29;20042;-89
2023/09/08 05:43:05;;;;;;;12.73;9.35;;;;;;;-145.48;100.00;64539.38;5982113;29;20050;-89
2023/09/08 05:46:08;;;;;;;11.82;8.57;;;;;;;-145.48;100.00;64539.38;5981926;29;20054;-89
2023/09/08 05:49:13;;;;;;;11.63;8.25;;;;;;;-145.48;100.00;64539.38;5961530;29;20081;-89
2023/09/08 05:52:17;;;;;;;10.50;8.23;;;;;;;-145.48;100.00;64539.38;5962098;29;20669;-89
2023/09/08 05:55:20;;;;;;;9.15;8.15;;;;;;;-145.48;100.00;64539.38;5993213;29;20516;-89
2023/09/08 05:58:24;;;;;;;11.05;8.65;;;;;;;-145.48;100.00;64539.38;5983067;29;20432;-89
2023/09/08 06:01:26;;;;;;;10.85;7.60;;;;;;;-145.48;100.00;64539.38;5984393;29;20069;-89
2023/09/08 06:04:31;;;;;;;9.88;7.70;;;;;;;-145.48;100.00;64539.38;5984455;29;20630;-89
2023/09/08 06:07:35;;;;;;;10.70;8.30;;;;;;;-145.48;100.00;64539.38;5965106;29;20490;-89
2023/09/08 06:10:41;;;;;;;10.98;8.02;;;;;;;-145.48;100.00;64539.38;5965257;29;20402;-89
2023/09/08 06:13:47;;;;;;;10.40;7.88;;;;;;;-145.48;100.00;64539.38;5970964;29;20061;-89
2023/09/08 06:16:52;;;;;;;10.43;7.97;;;;;;;-145.48;100.00;64539.38;5982754;29;20557;-89
2023/09/08 06:19:54;;;;;;;9.23;7.60;;;;;;;-145.48;100.00;64539.38;5982556;29;20565;-89
2023/09/08 06:22:56;;;;;;;9.68;8.23;;;;;;;-145.48;100.00;64539.38;5971862;29;20055;-89
2023/09/08 06:26:00;;;;;;;9.95;7.72;;;;;;;-145.48;100.00;64539.38;5972564;29;20054;-89
2023/09/08 06:29:06;;;;;;;10.25;7.25;;;;;;;-145.48;100.00;64539.38;5962376;29;20665;-89
2023/09/08 06:32:08;;;;;;;8.63;7.35;;;;;;;-145.48;100.00;64539.38;5970255;29;20050;-89
2023/09/08 06:35:11;;;;;;;9.77;7.85;;;;;;;-145.48;100.00;64539.38;5981906;29;20034;-89
2023/09/08 06:38:13;;;;;;;8.30;7.28;;;;;;;-145.48;100.00;64539.38;5963601;29;20512;-89
2023/09/08 06:41:17;;;;;;;8.90;6.88;;;;;;;-145.48;100.00;64539.38;5977414;29;20654;-89
2023/09/08 06:44:21;;;;;;;11.38;7.43;;;;;;;-145.48;100.00;64539.38;5981331;29;20054;-89
2023/09/08 06:47:23;;;;;;;11.77;7.78;;;;;;;-145.48;100.00;64539.38;5986112;29;20235;-89
2023/09/08 06:50:26;;;;;;;9.82;7.15;;;;;;;-145.48;100.00;64539.38;5974840;29;20050;-89
2023/09/08 06:53:28;;;;;;;8.13;6.97;;;;;;;-145.48;100.00;64539.38;5979877;29;20061;-89
2023/09/08 06:56:30;;;;;;;9.25;6.95;;;;;;;-145.48;100.00;64539.38;5976571;29;20054;-89
2023/09/08 06:59:32;;;;;;;9.32;7.00;;;;;;;-145.48;100.00;64539.38;5981865;29;20066;-89
2023/09/08 07:02:35;;;;;;;8.65;7.00;;;;;;;-145.48;100.00;64539.38;5982371;29;20054;-89
2023/09/08 07:05:41;;;;;;;8.20;7.07;;;;;;;-145.48;100.00;64539.38;5981113;29;20085;-89
2023/09/08 07:08:44;;;;;;;9.40;6.53;;;;;;;-145.48;100.00;64539.38;5980819;29;20062;-89
2023/09/08 07:11:46;;;;;;;9.35;6.68;;;;;;;-145.48;100.00;64539.38;5981963;29;20488;-89
2023/09/08 07:14:48;;;;;;;8.07;7.28;;;;;;;-145.48;100.00;64539.38;5982552;29;20047;-90
2023/09/08 07:17:51;;;;;;;8.18;6.85;;;;;;;-145.48;100.00;64539.38;5972728;29;20046;-89
2023/09/08 07:20:57;;;;;;;10.82;7.53;;;;;;;-145.48;100.00;64539.38;5966751;29;20050;-89
2023/09/08 07:24:00;;;;;;;8.98;7.47;;;;;;;-145.48;100.00;64539.38;5981408;29;20052;-89
2023/09/08 07:27:03;;;;;;;9.60;7.15;;;;;;;-145.48;100.00;64539.38;5983173;29;20592;-89
2023/09/08 07:30:06;;;;;;;7.13;6.18;;;;;;;-145.48;100.00;64539.38;5974490;29;20060;-89
2023/09/08 07:33:09;;;;;;;10.05;7.10;;;;;;;-145.48;100.00;64539.38;5981050;29;20050;-89
2023/09/08 07:36:13;;;;;;;8.50;6.57;;;;;;;-145.48;100.00;64539.38;5976064;29;20049;-90
2023/09/08 07:39:17;;;;;;;8.32;7.00;;;;;;;-145.48;100.00;64539.38;5976873;29;20054;-90
2023/09/08 07:42:19;;;;;;;11.38;7.78;;;;;;;-145.48;100.00;64539.38;5979181;29;20061;-89
2023/09/08 07:45:21;;;;;;;9.15;6.35;;;;;;;-145.48;100.00;64539.38;5981280;29;20043;-89
2023/09/08 07:48:23;;;;;;;8.02;6.38;;;;;;;-145.48;100.00;64539.38;5981285;29;20054;-89
2023/09/08 07:51:27;;;;;;;7.90;6.22;;;;;;;-145.48;100.00;64539.38;5975610;29;20526;-89
2023/09/08 07:54:28;;;;;;;8.35;6.82;;;;;;;-145.48;100.00;64539.38;5974388;29;20046;-89
2023/09/08 07:57:31;;;;;;;8.85;5.80;;;;;;;-145.48;100.00;64539.38;5976836;29;20050;-89
2023/09/08 08:00:44;;;;;;;9.40;5.82;;;;;;;18.26;100.00;101017.91;6326445;27;1286953;-88
2023/09/08 08:03:46;;;;;;;10.23;6.07;;;;;;;18.36;100.00;101024.78;6359958;28;20040;-89
2023/09/08 08:06:49;;;;;;;8.48;6.25;;;;;;;18.48;100.00;101023.50;6349121;28;20191;-89
2023/09/08 08:09:53;;;;;;;8.73;6.57;;;;;;;18.60;100.00;101024.03;6359127;28;20035;-89
2023/09/08 08:12:55;;;;;;;8.13;5.80;;;;;;;18.72;100.00;101025.34;6349318;27;20036;-89
2023/09/08 08:15:59;;;;;;;7.53;6.03;;;;;;;18.83;100.00;101026.88;6347410;27;20035;-89
2023/09/08 08:19:03;;;;;;;7.53;5.90;;;;;;;18.92;100.00;101028.53;6349060;27;20127;-89
2023/09/08 08:22:05;;;;;;;10.00;5.95;;;;;;;19.02;100.00;101021.31;6352797;27;20090;-89
2023/09/08 08:25:08;;;;;;;9.52;6.72;;;;;;;19.13;100.00;101033.28;6339125;28;20047;-89
2023/09/08 08:28:13;;;;;;;8.43;5.93;;;;;;;19.20;100.00;101026.38;6346229;27;20042;-89
2023/09/08 08:31:15;;;;;;;6.95;5.68;;;;;;;19.30;100.00;101024.41;6349663;27;20046;-89
2023/09/08 08:34:17;;;;;;;7.32;5.88;;;;;;;19.39;100.00;101027.84;6350434;27;20039;-89
2023/09/08 08:37:19;;;;;;;7.03;5.65;;;;;;;19.53;100.00;101027.16;6354260;28;20042;-89
2023/09/08 08:40:26;;;;;;;8.02;5.63;;;;;;;19.67;100.00;101023.03;6352439;27;20041;-89
2023/09/08 08:43:28;;;;;;;6.63;5.65;;;;;;;19.75;100.00;101012.53;6344904;27;20503;-89
2023/09/08 08:46:33;;;;;;;6.85;5.20;;;;;;;19.83;100.00;101019.56;6358261;28;20032;-89
2023/09/08 08:49:36;;;;;;;7.45;5.93;;;;;;;19.97;100.00;101010.97;6360009;27;20063;-89
2023/09/08 08:52:41;;;;;;;7.78;6.22;;;;;;;20.06;100.00;101010.94;6347636;28;20039;-89
2023/09/08 08:55:46;;;;;;;5.85;5.35;;;;;;;20.20;100.00;101010.22;6346394;28;20055;-89
2023/09/08 08:58:50;;;;;;;9.65;5.97;;;;;;;20.32;100.00;101011.47;6341665;28;20118;-89
2023/09/08 09:01:54;;;;;;;9.10;5.68;;;;;;;20.40;100.00;101016.66;6337595;27;20040;-89
2023/09/08 09:05:00;;;;;;;6.35;5.53;;;;;;;20.53;100.00;101004.75;6343776;28;20122;-89
2023/09/08 09:08:04;;;;;;;7.70;5.97;;;;;;;20.60;100.00;101005.72;6357995;28;20039;-89
2023/09/08 09:11:06;;;;;;;6.22;5.60;;;;;;;20.68;100.00;100997.75;6332015;28;20131;-89
2023/09/08 09:14:09;;;;;;;6.43;5.68;;;;;;;20.85;100.00;101001.09;6319918;28;20073;-89
2023/09/08 09:17:14;;;;;;;6.65;5.70;;;;;;;20.99;100.00;101010.00;6329939;28;20759;-89
2023/09/08 09:20:20;;;;;;;8.88;5.50;;;;;;;21.06;100.00;100998.59;6329932;28;20048;-89
2023/09/08 09:23:35;;;;;;;8.68;5.47;;;;;;;21.19;100.00;100995.38;6319645;28;20036;-89
2023/09/08 09:26:36;;;;;;;9.23;5.68;;;;;;;21.30;100.00;100988.84;6326231;28;20055;-89
2023/09/08 09:29:49;;;;;;;7.55;5.53;;;;;;;21.39;100.00;100990.41;6339773;28;20051;-89
2023/09/08 09:33:11;;;;;;;7.43;5.13;;;;;;;21.55;100.00;100988.59;6330866;28;20055;-89
2023/09/08 09:36:25;;;;;;;6.07;5.10;;;;;;;21.67;100.00;100987.97;6342034;28;20051;-88
2023/09/08 09:39:27;;;;;;;7.95;5.15;;;;;;;21.78;100.00;100991.13;6340926;28;20055;-89
2023/09/08 09:42:31;;;;;;;8.60;5.18;;;;;;;21.90;100.00;100984.38;6334151;27;20047;-89
2023/09/08 09:45:36;;;;;;;7.35;5.35;;;;;;;21.98;100.00;100984.28;6335854;28;20112;-89
2023/09/08 09:48:39;;;;;;;6.38;4.93;;;;;;;22.10;100.00;100982.78;6337127;28;20051;-89
2023/09/08 09:51:50;;;;;;;7.45;5.50;;;;;;;22.22;100.00;100980.53;6340081;28;20485;-89
2023/09/08 09:54:56;;;;;;;6.90;5.00;;;;;;;22.30;100.00;100984.88;6331518;28;20036;-88
2023/09/08 09:58:03;;;;;;;6.80;4.72;;;;;;;22.41;100.00;100976.47;6328107;28;20181;-88
2023/09/08 10:01:06;;;;;;;10.15;4.97;;;;;;;22.53;100.00;100974.13;6337590;28;20132;-89
2023/09/08 10:04:08;;;;;;;6.45;5.40;;;;;;;22.61;100.00;100974.03;6338868;28;20035;-90
2023/09/08 10:07:10;;;;;;;9.77;5.53;;;;;;;22.74;100.00;100968.84;6323232;28;21011;-88
2023/09/08 10:10:12;;;;;;;6.85;4.95;;;;;;;22.89;100.00;100971.41;6326575;28;20054;-88
2023/09/08 10:13:21;;;;;;;5.50;4.68;;;;;;;22.95;100.00;100970.63;6315464;28;20047;-88
2023/09/08 10:16:28;;;;;;;6.50;4.85;;;;;;;23.02;100.00;100972.53;6336429;28;20408;-88
2023/09/08 10:19:30;;;;;;;6.60;4.93;;;;;;;23.07;100.00;100968.31;6317494;28;20040;-88
2023/09/08 10:22:33;;;;;;;6.15;4.80;;;;;;;23.17;100.00;100973.25;6325129;28;20331;-88
2023/09/08 10:25:39;;;;;;;6.00;5.28;;;;;;;23.26;100.00;100972.09;6312366;28;20548;-88
2023/09/08 10:28:43;;;;;;;7.78;4.95;;;;;;;23.36;100.00;100969.91;6330932;28;20036;-88
2023/09/08 10:31:46;;;;;;;8.18;4.93;;;;;;;23.48;100.00;100966.72;6326799;28;20047;-88
2023/09/08 10:34:49;;;;;;;7.22;5.10;;;;;;;23.59;100.00;100960.88;6341007;28;20046;-88
2023/09/08 10:38:12;;;;;;;8.38;4.65;;;;;;;23.74;100.00;100960.78;6320490;28;20048;-88
2023/09/08 10:41:23;;;;;;;8.80;4.93;;;;;;;23.89;100.00;100956.16;6333806;28;20053;-89
2023/09/08 10:44:25;;;;;;;5.35;4.18;;;;;;;24.03;100.00;100962.31;6328251;28;20520;-88
2023/09/08 10:47:45;;;;;;;6.82;5.00;;;;;;;24.13;100.00;100961.94;6334810;28;20047;-88
2023/09/08 10:50:47;;;;;;;5.65;5.05;;;;;;;24.16;100.00;100959.69;6335388;28;20050;-89
2023/09/08 10:53:49;;;;;;;5.45;4.45;;;;;;;24.26;100.00;100954.03;6340881;28;20040;-88
2023/09/08 10:56:59;;;;;;;9.20;4.47;;;;;;;24.35;100.00;100954.63;6321165;28;20042;-88
2023/09/08 11:00:11;;;;;;;5.82;4.68;;;;;;;24.47;100.00;100955.69;6340659;28;20055;-88
2023/09/08 11:03:25;;;;;;;10.02;4.90;;;;;;;24.55;100.00;100946.75;6319463;27;20479;-88
2023/09/08 11:06:30;;;;;;;4.72;4.30;;;;;;;24.63;100.00;100938.63;6324929;28;20043;-88
2023/09/08 11:09:36;;;;;;;5.75;4.70;;;;;;;24.67;100.00;100940.66;6332305;28;20032;-89
2023/09/08 11:12:38;;;;;;;7.63;4.65;;;;;;;24.73;100.00;100943.50;6332412;28;20035;-88
2023/09/08 11:15:40;;;;;;;4.90;4.18;;;;;;;24.81;100.00;100949.38;6321908;28;20080;-89
2023/09/08 11:18:42;;;;;;;6.40;4.57;;;;;;;24.91;100.00;100936.53;6331830;28;20039;-89
2023/09/08 11:21:45;;;;;;;5.47;4.32;;;;;;;25.04;100.00;100926.94;6333025;28;20562;-89
2023/09/08 11:24:48;;;;;;;5.78;4.63;;;;;;;25.14;100.00;100925.53;6340157;28;20048;-89
2023/09/08 11:27:50;;;;;;;6.18;4.38;;;;;;;25.24;100.00;100929.56;6333724;28;20108;-88
2023/09/08 11:30:53;;;;;;;6.15;4.40;;;;;;;25.32;100.00;100926.72;6320413;28;20043;-88
2023/09/08 11:33:56;;;;;;;5.70;4.28;;;;;;;25.35;100.00;100921.81;6315087;28;20471;-89
2023/09/08 11:36:58;;;;;;;5.82;4.35;;;;;;;25.46;100.00;100920.34;6337111;28;20109;-89
2023/09/08 11:40:00;;;;;;;8.73;4.90;;;;;;;25.58;100.00;100907.25;6338815;28;20044;-88
2023/09/08 11:43:02;;;;;;;5.43;4.50;;;;;;;25.74;100.00;100904.13;6337625;28;20043;-88
2023/09/08 11:46:04;;;;;;;6.70;4.68;;;;;;;25.84;100.00;100908.97;6337526;28;20047;-88
2023/09/08 11:49:07;;;;;;;4.15;3.70;;;;;;;25.84;100.00;100914.25;6336457;28;20408;-89
2023/09/08 11:52:09;;;;;;;4.38;3.47;;;;;;;25.91;100.00;100900.97;6327158;28;20108;-88
2023/09/08 11:55:12;;;;;;;5.72;4.18;;;;;;;26.00;100.00;100895.19;6323666;28;20047;-88
2023/09/08 11:58:15;;;;;;;4.53;3.83;;;;;;;26.05;100.00;100904.38;6321258;28;20043;-89
2023/09/08 12:01:18;;;;;;;4.82;3.33;;;;;;;26.20;100.00;100896.91;6337114;28;20051;-89
2023/09/08 12:04:21;;;;;;;5.25;3.28;;;;;;;26.27;100.00;100892.38;6321198;28;20072;-89
2023/09/08 12:07:23;;;;;;;4.00;3.70;;;;;;;26.40;100.00;100897.56;6331690;28;20040;-89
2023/09/08 12:10:25;;;;;;;4.75;3.03;;;;;;;26.53;100.00;100882.56;6337800;28;20499;-89
2023/09/08 12:13:27;;;;;;;5.30;2.80;;;;;;;26.68;100.00;100879.59;6327879;28;20508;-89
2023/09/08 12:16:30;;;;;;;4.40;2.78;;;;;;;26.80;100.00;100873.31;6329521;28;20586;-88
2023/09/08 12:19:32;;;;;;;3.17;2.40;;;;;;;26.84;98.46;100863.88;6325875;28;20119;-88
2023/09/08 12:22:34;;;;;;;3.60;2.58;;;;;;;26.90;85.33;100856.88;6322997;28;20036;-88
2023/09/08 12:25:47;;;;;;;4.38;2.50;;;;;;;26.98;92.23;100869.06;6337720;28;20097;-88
2023/09/08 12:28:49;;;;;;;3.22;2.60;;;;;;;27.05;89.75;100867.13;6329893;28;20042;-88
2023/09/08 12:31:51;;;;;;;4.50;2.90;;;;;;;27.23;100.00;100877.00;6331536;28;20547;-88
2023/09/08 12:34:53;;;;;;;2.97;2.53;;;;;;;27.36;97.80;100868.03;6336305;28;20556;-88
2023/09/08 12:38:00;;;;;;;3.40;2.53;;;;;;;27.51;93.88;100860.47;6336092;28;20131;-88
2023/09/08 12:41:02;;;;;;;2.85;2.17;;;;;;;27.62;84.61;100856.22;6322401;28;20178;-88
2023/09/08 12:44:05;;;;;;;4.28;2.40;;;;;;;27.80;77.30;100844.72;6326675;28;20094;-88
2023/09/08 12:47:07;;;;;;;3.03;2.45;;;;;;;27.90;70.25;100843.16;6340646;28;20039;-88
2023/09/08 12:50:09;;;;;;;3.85;2.58;;;;;;;28.12;90.88;100855.91;6336089;28;20032;-88
2023/09/08 12:53:11;;;;;;;3.65;2.30;;;;;;;28.25;76.52;100839.75;6334810;28;20036;-88
2023/09/08 12:56:13;;;;;;;3.20;2.33;;;;;;;28.38;74.43;100835.22;6336200;28;20035;-88
2023/09/08 12:59:15;;;;;;;4.75;2.25;;;;;;;28.51;79.50;100841.13;6335339;28;20047;-88
2023/09/08 13:02:16;;;;;;;4.68;2.70;;;;;;;28.66;67.82;100821.22;6320200;28;20168;-88
2023/09/08 13:05:19;;;;;;;2.60;2.28;;;;;;;28.82;66.53;100825.84;6329309;28;20129;-88
2023/09/08 13:08:21;;;;;;;7.68;2.08;;;;;;;29.01;66.10;100810.47;6316477;28;20113;-88
2023/09/08 13:11:23;;;;;;;2.80;2.08;;;;;;;29.21;69.87;100820.75;6331967;28;20071;-88
2023/09/08 13:14:25;;;;;;;3.55;2.45;;;;;;;29.40;73.17;100816.84;6330869;28;20071;-88
2023/09/08 13:17:27;;;;;;;6.00;2.75;;;;;;;29.57;67.57;100819.53;6326333;28;20058;-88
2023/09/08 13:20:28;;;;;;;3.53;2.50;;;;;;;29.71;67.64;100811.25;6340045;28;20043;-88
2023/09/08 13:23:30;;;;;;;3.50;1.88;;;;;;;29.83;58.29;100810.13;6342436;28;20044;-88
2023/09/08 13:26:32;;;;;;;3.60;2.08;;;;;;;29.91;50.61;100792.09;6337384;28;20044;-88
2023/09/08 13:29:34;;;;;;;2.25;2.05;;;;;;;30.02;64.79;100812.56;6317465;28;20379;-88
2023/09/08 13:32:36;;;;;;;2.80;1.90;;;;;;;30.14;57.95;100801.81;6320595;28;20043;-88
2023/09/08 13:35:39;;;;;;;3.28;2.10;;;;;;;30.27;56.99;100804.16;6338594;28;20408;-88
2023/09/08 13:38:41;;;;;;;2.45;1.90;;;;;;;30.41;55.59;100800.09;6342731;28;20036;-88
2023/09/08 13:42:02;;;;;;;2.78;1.88;;;;;;;30.52;53.38;100794.88;6325297;28;20072;-88
2023/09/08 13:45:05;;;;;;;4.07;1.98;;;;;;;30.64;56.76;100803.59;6339122;28;20117;-88
2023/09/08 13:48:07;;;;;;;3.70;2.10;;;;;;;30.75;52.99;100801.84;6325527;28;20040;-88
2023/09/08 13:51:10;;;;;;;2.75;1.80;;;;;;;30.85;51.49;100799.31;6330437;28;20084;-88
2023/09/08 13:54:15;;;;;;;1.77;1.67;;;;;;;30.90;55.04;100802.84;6328904;28;20409;-88
2023/09/08 13:57:20;;;;;;;2.47;2.22;;;;;;;30.97;51.11;100802.66;6327243;28;20489;-88